createdAt,value
2022-08-09T00:00:12.633Z,8.7
2022-08-09T00:05:03.763Z,8.6
2022-08-09T00:10:01.397Z,8.0
2022-08-09T00:15:15.037Z,8.3
2022-08-09T00:20:01.159Z,8.7
2022-08-09T00:25:01.529Z,9.2
2022-08-09T00:30:24.971Z,9.2
2022-08-09T00:35:01.446Z,9.9
2022-08-09T00:45:21.212Z,9.7
2022-08-09T00:50:01.496Z,9.3
2022-08-09T00:55:01.789Z,9.9
2022-08-09T01:00:20.980Z,9.6
2022-08-09T01:05:02.490Z,9.3
2022-08-09T01:10:01.381Z,9.6
2022-08-09T01:15:21.191Z,9.6
2022-08-09T01:20:03.024Z,8.9
2022-08-09T01:25:01.502Z,9.2
2022-08-09T01:30:06.230Z,9.6
2022-08-09T01:35:28.725Z,10.5
2022-08-09T01:40:01.563Z,11.0
2022-08-09T01:45:02.271Z,11.4
2022-08-09T01:50:10.192Z,11.7
2022-08-09T01:55:02.706Z,12.1
2022-08-09T02:00:34.259Z,12.0
2022-08-09T02:05:19.906Z,11.9
2022-08-09T02:10:03.743Z,11.8
2022-08-09T02:15:06.268Z,11.6
2022-08-09T02:20:02.183Z,11.2
2022-08-09T02:25:01.557Z,11.7
2022-08-09T02:30:03.562Z,11.9
2022-08-09T02:35:01.677Z,11.8
2022-08-09T02:45:04.879Z,12.1
2022-08-09T02:50:06.462Z,10.8
2022-08-09T02:55:03.026Z,10.4
2022-08-09T03:00:21.690Z,10.3
2022-08-09T03:05:01.513Z,10.8
2022-08-09T03:10:01.516Z,11.1
2022-08-09T03:15:07.948Z,12.1
2022-08-09T03:20:03.571Z,12.6
2022-08-09T03:25:06.060Z,13.0
2022-08-09T03:30:09.075Z,12.4
2022-08-09T03:35:01.553Z,12.5
2022-08-09T03:40:01.594Z,11.7
2022-08-09T03:45:04.947Z,11.5
2022-08-09T03:50:01.513Z,11.6
2022-08-09T03:55:01.516Z,11.7
2022-08-09T04:00:02.852Z,11.9
2022-08-09T04:05:27.026Z,12.0
2022-08-09T04:10:01.515Z,12.6
2022-08-09T04:15:29.789Z,12.7
2022-08-09T04:20:02.494Z,12.4
2022-08-09T04:25:01.534Z,11.5
2022-08-09T04:30:03.470Z,12.1
2022-08-09T04:35:01.664Z,11.1
2022-08-09T04:40:03.402Z,10.4
2022-08-09T04:45:03.323Z,12.0
2022-08-09T04:50:01.724Z,13.1
2022-08-09T05:00:08.473Z,14.0
2022-08-09T05:05:10.594Z,15.2
2022-08-09T05:10:01.923Z,14.4
2022-08-09T05:15:38.898Z,14.7
2022-08-09T05:20:02.737Z,15.2
2022-08-09T05:25:03.735Z,15.1
2022-08-09T05:30:03.200Z,14.8
2022-08-09T05:35:01.923Z,15.1
2022-08-09T05:40:02.718Z,15.2
2022-08-09T05:45:02.359Z,14.1
2022-08-09T05:50:24.867Z,14.7
2022-08-09T05:55:21.084Z,14.3
2022-08-09T06:00:04.265Z,13.8
2022-08-09T06:05:01.785Z,12.9
2022-08-09T06:10:04.018Z,13.0
2022-08-09T06:15:10.730Z,12.5
2022-08-09T06:25:01.837Z,12.4
2022-08-09T06:30:14.050Z,11.9
2022-08-09T06:35:07.809Z,12.0
2022-08-09T06:40:21.640Z,11.2
2022-08-09T06:46:03.547Z,10.2
2022-08-09T06:50:12.373Z,9.4
2022-08-09T06:55:14.096Z,9.1
2022-08-09T07:00:48.004Z,8.6
2022-08-09T07:05:02.324Z,8.8
2022-08-09T07:10:24.469Z,9.2
2022-08-09T07:15:53.455Z,9.6
2022-08-09T07:25:09.526Z,9.5
2022-08-09T07:30:03.095Z,9.5
2022-08-09T07:40:06.154Z,9.2
2022-08-09T07:45:01.837Z,8.6
2022-08-09T07:50:10.409Z,8.2
2022-08-09T07:55:12.122Z,7.9
2022-08-09T08:00:09.198Z,7.1
2022-08-09T08:05:01.609Z,6.7
2022-08-09T08:10:08.407Z,7.0
2022-08-09T08:15:03.312Z,6.6
2022-08-09T08:20:02.043Z,6.2
2022-08-09T08:25:01.806Z,6.4
2022-08-09T08:30:07.127Z,6.2
2022-08-09T08:35:01.969Z,5.4
2022-08-09T08:40:01.488Z,5.8
2022-08-09T08:45:01.138Z,5.8
2022-08-09T08:55:01.531Z,5.7
2022-08-09T09:00:08.079Z,5.8
2022-08-09T09:05:13.399Z,5.3
2022-08-09T09:10:02.967Z,4.8
2022-08-09T09:15:03.785Z,4.6
2022-08-09T09:20:05.892Z,4.5
2022-08-09T09:26:02.688Z,4.6
2022-08-09T09:30:37.618Z,5.1
2022-08-09T09:35:01.555Z,5.4
2022-08-09T09:40:04.974Z,5.3
2022-08-09T09:45:05.935Z,5.4
2022-08-09T09:50:38.698Z,5.3
2022-08-09T09:55:33.388Z,4.7
2022-08-09T10:00:02.720Z,5.2
2022-08-09T10:05:09.383Z,5.4
2022-08-09T10:15:03.911Z,5.4
2022-08-09T10:20:01.522Z,5.7
2022-08-09T10:25:21.808Z,5.3
2022-08-09T10:55:18.004Z,8.4
2022-08-09T11:00:20.379Z,7.7
2022-08-09T11:10:01.438Z,7.6
2022-08-09T11:15:19.036Z,7.3
2022-08-09T11:20:08.246Z,7.0
2022-08-09T11:25:04.049Z,6.4
2022-08-09T11:30:33.099Z,6.1
2022-08-09T11:35:04.967Z,6.2
2022-08-09T11:40:06.534Z,6.3
2022-08-09T11:45:03.878Z,6.4
2022-08-09T11:50:54.581Z,7.0
2022-08-09T11:55:16.624Z,7.4
2022-08-09T12:00:03.950Z,7.1
2022-08-09T12:05:02.100Z,6.8
2022-08-09T12:10:02.252Z,6.5
2022-08-09T12:15:22.324Z,6.6
2022-08-09T12:20:10.577Z,6.5
2022-08-09T12:25:01.286Z,7.0
2022-08-09T12:30:36.077Z,7.8
2022-08-09T12:35:02.848Z,8.4
2022-08-09T12:40:05.806Z,9.2
2022-08-09T12:45:03.436Z,9.2
2022-08-09T12:50:01.501Z,8.8
2022-08-09T12:56:11.169Z,9.0
2022-08-09T13:00:12.833Z,8.7
2022-08-09T13:05:02.429Z,7.7
2022-08-09T13:10:04.485Z,8.0
2022-08-09T13:15:07.005Z,8.4
2022-08-09T13:20:08.007Z,8.1
2022-08-09T13:25:03.431Z,8.5
2022-08-09T13:30:49.829Z,9.3
2022-08-09T13:35:04.444Z,9.2
2022-08-09T13:41:22.252Z,9.3
2022-08-09T13:45:12.334Z,9.8
2022-08-09T13:50:07.849Z,9.7
2022-08-09T13:55:14.371Z,9.3
2022-08-09T14:00:04.404Z,9.4
2022-08-09T14:05:01.499Z,8.8
2022-08-09T14:10:01.429Z,7.9
2022-08-09T14:15:19.542Z,7.5
2022-08-09T14:20:01.422Z,6.9
2022-08-09T14:30:36.049Z,7.4
2022-08-09T14:35:03.381Z,7.8
2022-08-09T14:40:01.469Z,7.9
2022-08-09T14:46:39.236Z,8.3
2022-08-09T14:50:02.538Z,8.6
2022-08-09T15:00:02.799Z,8.4
2022-08-09T15:05:01.470Z,8.5
2022-08-09T15:10:17.735Z,8.2
2022-08-09T15:15:02.381Z,7.8
2022-08-09T15:20:04.495Z,8.1
2022-08-09T15:25:05.644Z,8.8
2022-08-09T15:30:48.126Z,9.4
2022-08-09T15:35:02.157Z,9.3
2022-08-09T15:40:05.283Z,9.1
2022-08-09T15:45:04.040Z,8.8
2022-08-09T15:50:04.556Z,8.4
2022-08-09T15:55:01.315Z,8.2
2022-08-09T16:00:04.402Z,8.5
2022-08-09T16:05:02.587Z,8.8
2022-08-09T16:10:04.431Z,8.3
2022-08-09T16:15:02.645Z,7.8
2022-08-09T16:20:04.380Z,7.4
2022-08-09T16:25:01.695Z,7.3
2022-08-09T16:30:08.263Z,7.2
2022-08-09T16:35:02.417Z,7.6
2022-08-09T16:40:09.019Z,8.0
2022-08-09T16:45:03.092Z,8.2
2022-08-09T16:55:01.432Z,7.9
2022-08-09T17:00:03.542Z,7.7
2022-08-09T17:05:02.958Z,7.3
2022-08-09T17:10:02.067Z,7.1
2022-08-09T17:15:18.093Z,7.4
2022-08-09T17:20:28.063Z,8.2
2022-08-09T17:25:02.981Z,8.5
2022-08-09T17:30:17.220Z,9.1
2022-08-09T17:45:02.572Z,8.4
2022-08-09T17:50:17.009Z,8.3
2022-08-09T17:55:01.473Z,8.4
2022-08-09T18:00:10.342Z,9.0
2022-08-09T18:05:01.442Z,8.9
2022-08-09T18:10:04.804Z,8.7
2022-08-09T18:15:06.099Z,8.6
2022-08-09T18:20:53.606Z,8.0
2022-08-09T18:25:01.361Z,7.5
2022-08-09T18:30:36.476Z,7.6
2022-08-09T18:35:01.465Z,8.2
2022-08-09T18:40:01.535Z,8.4
2022-08-09T18:46:45.391Z,8.8
2022-08-09T18:50:10.357Z,9.0
2022-08-09T18:55:01.452Z,9.5
2022-08-09T19:00:08.612Z,9.5
2022-08-09T19:05:03.583Z,9.4
2022-08-09T19:10:17.486Z,10.2
2022-08-09T19:15:08.286Z,10.2
2022-08-09T19:20:03.188Z,10.0
2022-08-09T19:25:09.378Z,10.1
2022-08-09T19:30:20.922Z,10.3
2022-08-09T19:35:11.382Z,9.6
2022-08-09T19:40:03.402Z,10.3
2022-08-09T19:45:03.184Z,10.8
2022-08-09T19:50:04.867Z,11.0
2022-08-09T19:55:01.267Z,10.8
2022-08-09T20:00:11.154Z,10.8
2022-08-09T20:05:01.682Z,10.4
2022-08-09T20:10:07.131Z,10.2
2022-08-09T20:16:32.450Z,10.8
2022-08-09T20:20:01.244Z,11.4
2022-08-09T20:25:01.266Z,11.6
2022-08-09T20:30:03.744Z,10.8
2022-08-09T20:35:01.605Z,10.9
2022-08-09T20:40:14.220Z,10.3
2022-08-09T20:45:58.118Z,10.4
2022-08-09T20:50:01.335Z,10.8
2022-08-09T20:55:01.474Z,11.3
2022-08-09T21:00:21.071Z,11.1
2022-08-09T21:05:50.502Z,11.2
2022-08-09T21:10:01.473Z,11.0
2022-08-09T21:15:03.332Z,10.4
2022-08-09T21:20:04.939Z,10.6
2022-08-09T21:25:01.332Z,10.2
2022-08-09T21:30:02.255Z,9.8
2022-08-09T21:35:01.447Z,9.1
2022-08-09T21:40:01.573Z,8.8
2022-08-09T21:45:03.115Z,8.8
2022-08-09T21:55:03.548Z,9.2
2022-08-09T22:00:06.294Z,9.8
2022-08-09T22:05:04.275Z,10.7
2022-08-09T22:10:05.482Z,10.9
2022-08-09T22:15:04.952Z,11.3
2022-08-09T22:20:01.427Z,11.4
2022-08-09T22:26:04.646Z,12.0
2022-08-09T22:30:03.414Z,12.1
2022-08-09T22:35:02.747Z,12.5
2022-08-09T22:40:03.263Z,12.9
2022-08-09T22:48:05.426Z,12.4
2022-08-09T22:50:01.609Z,12.1
2022-08-09T22:55:01.503Z,11.7
2022-08-09T23:00:04.184Z,11.9
2022-08-09T23:05:01.388Z,11.8
2022-08-09T23:10:00.974Z,12.1
2022-08-09T23:15:01.919Z,11.8
2022-08-09T23:20:06.589Z,12.0
2022-08-09T23:25:01.297Z,11.5
2022-08-09T23:30:02.325Z,11.1
2022-08-09T23:40:01.259Z,12.0
2022-08-09T23:45:01.330Z,12.0
2022-08-09T23:50:00.928Z,12.8
2022-08-09T23:55:01.486Z,12.9
